createdAt,value
2023-01-06T00:01:03.755Z,12.60
2023-01-06T00:03:53.017Z,5.93
2023-01-06T00:06:41.534Z,5.93
2023-01-06T00:09:30.042Z,6.43
2023-01-06T00:12:19.912Z,6.60
2023-01-06T00:15:08.957Z,8.63
2023-01-06T00:17:57.604Z,10.13
2023-01-06T00:20:46.058Z,10.73
2023-01-06T00:23:35.118Z,9.60
2023-01-06T00:26:24.006Z,12.07
2023-01-06T00:29:13.889Z,11.50
2023-01-06T00:32:02.957Z,11.63
2023-01-06T00:34:51.396Z,13.27
2023-01-06T00:37:39.868Z,11.57
2023-01-06T00:40:28.427Z,12.23
2023-01-06T00:43:16.877Z,12.77
2023-01-06T00:46:06.871Z,11.13
2023-01-06T00:49:04.642Z,7.13
2023-01-06T00:51:53.868Z,6.60
2023-01-06T00:54:42.955Z,5.13
2023-01-06T00:57:31.397Z,6.73
2023-01-06T01:00:19.986Z,6.90
2023-01-06T01:03:09.784Z,8.40
2023-01-06T01:06:00.580Z,3.70
2023-01-06T01:08:49.014Z,2.80
2023-01-06T01:11:54.894Z,3.70
2023-01-06T01:14:47.092Z,3.33
2023-01-06T01:17:35.547Z,2.17
2023-01-06T01:20:26.121Z,2.50
2023-01-06T01:23:14.856Z,1.87
2023-01-06T01:26:03.325Z,2.97
2023-01-06T01:28:52.463Z,3.27
2023-01-06T01:31:41.413Z,2.50
2023-01-06T01:34:30.184Z,2.20
2023-01-06T01:37:20.145Z,2.73
2023-01-06T01:40:10.463Z,2.30
2023-01-06T01:42:59.227Z,2.73
2023-01-06T01:45:49.330Z,2.57
2023-01-06T01:48:38.626Z,2.70
2023-01-06T01:51:30.278Z,2.20
2023-01-06T01:54:23.462Z,2.57
2023-01-06T01:57:16.171Z,2.33
2023-01-06T02:00:06.083Z,2.30
2023-01-06T02:02:54.779Z,2.97
2023-01-06T02:05:46.477Z,2.10
2023-01-06T02:08:38.859Z,2.17
2023-01-06T02:11:30.666Z,2.10
2023-01-06T02:14:22.542Z,2.10
2023-01-06T02:17:21.612Z,2.00
2023-01-06T02:20:35.222Z,2.17
2023-01-06T02:23:41.642Z,2.23
2023-01-06T02:26:57.949Z,2.70
2023-01-06T02:30:31.711Z,3.23
2023-01-06T02:33:25.153Z,2.97
2023-01-06T02:36:23.734Z,2.07
2023-01-06T02:39:19.952Z,2.20
2023-01-06T02:42:19.128Z,2.33
2023-01-06T02:45:15.276Z,2.23
2023-01-06T02:48:08.772Z,2.27
2023-01-06T02:51:05.196Z,2.67
2023-01-06T02:54:02.050Z,3.13
2023-01-06T02:56:55.315Z,2.80
2023-01-06T02:59:48.217Z,2.47
2023-01-06T03:02:38.459Z,2.93
2023-01-06T03:05:28.999Z,2.60
2023-01-06T03:08:21.909Z,2.40
2023-01-06T03:11:10.500Z,2.80
2023-01-06T03:14:01.022Z,3.13
2023-01-06T03:16:49.507Z,2.70
2023-01-06T03:19:38.160Z,2.80
2023-01-06T03:22:26.942Z,2.30
2023-01-06T03:25:17.110Z,2.70
2023-01-06T03:28:05.893Z,3.27
2023-01-06T03:30:57.918Z,4.23
2023-01-06T03:33:55.008Z,2.40
2023-01-06T03:36:51.410Z,2.80
2023-01-06T03:39:42.457Z,3.40
2023-01-06T03:42:54.189Z,2.20
2023-01-06T03:46:06.164Z,2.60
2023-01-06T03:48:59.382Z,2.87
2023-01-06T03:51:50.483Z,3.50
2023-01-06T03:54:42.413Z,4.10
2023-01-06T03:57:34.550Z,3.00
2023-01-06T04:00:26.290Z,2.83
2023-01-06T04:03:15.331Z,3.77
2023-01-06T04:06:03.829Z,3.03
2023-01-06T04:08:52.426Z,2.97
2023-01-06T04:11:58.459Z,4.33
2023-01-06T04:14:48.355Z,6.63
2023-01-06T04:17:37.335Z,2.70
2023-01-06T04:20:27.712Z,3.40
2023-01-06T04:23:16.138Z,3.30
2023-01-06T04:26:04.775Z,3.90
2023-01-06T04:28:53.316Z,3.10
2023-01-06T04:31:43.345Z,2.93
2023-01-06T04:34:31.850Z,3.37
2023-01-06T04:37:21.555Z,5.53
2023-01-06T04:40:11.182Z,3.50
2023-01-06T04:43:05.545Z,4.20
2023-01-06T04:45:54.487Z,3.73
2023-01-06T04:48:44.438Z,3.70
2023-01-06T04:51:33.075Z,3.60
2023-01-06T04:54:21.585Z,3.47
2023-01-06T04:57:10.063Z,3.93
2023-01-06T04:59:58.612Z,5.20
2023-01-06T05:02:48.804Z,4.13
2023-01-06T05:05:39.229Z,5.13
2023-01-06T05:08:27.786Z,4.17
2023-01-06T05:11:18.126Z,4.80
2023-01-06T05:14:06.700Z,4.23
2023-01-06T05:16:55.290Z,5.13
2023-01-06T05:19:44.483Z,3.93
2023-01-06T05:22:34.469Z,4.43
2023-01-06T05:25:22.987Z,3.87
2023-01-06T05:28:11.609Z,3.93
2023-01-06T05:31:01.178Z,4.37
2023-01-06T05:33:49.625Z,5.20
2023-01-06T05:36:38.155Z,5.10
2023-01-06T05:39:28.008Z,5.00
2023-01-06T05:42:17.466Z,4.80
2023-01-06T05:45:06.847Z,5.20
2023-01-06T05:47:55.263Z,5.17
2023-01-06T05:50:43.770Z,4.67
2023-01-06T05:53:33.508Z,5.17
2023-01-06T05:56:23.901Z,4.50
2023-01-06T05:59:12.483Z,3.90
2023-01-06T06:02:00.985Z,4.60
2023-01-06T06:04:49.559Z,4.80
2023-01-06T06:07:38.064Z,4.83
2023-01-06T06:10:26.641Z,5.53
2023-01-06T06:13:16.508Z,5.37
2023-01-06T06:16:06.675Z,4.87
2023-01-06T06:18:56.626Z,5.20
2023-01-06T06:21:45.123Z,5.47
2023-01-06T06:24:33.529Z,5.63
2023-01-06T06:27:22.006Z,6.10
2023-01-06T06:30:12.836Z,4.70
2023-01-06T06:33:01.237Z,4.30
2023-01-06T06:35:57.671Z,4.80
2023-01-06T06:38:47.677Z,5.23
2023-01-06T06:41:36.144Z,5.63
2023-01-06T06:44:24.610Z,5.37
2023-01-06T06:47:15.878Z,4.87
2023-01-06T06:50:04.779Z,6.27
2023-01-06T06:52:53.649Z,4.10
2023-01-06T06:55:42.036Z,5.13
2023-01-06T06:58:30.643Z,5.60
2023-01-06T07:01:20.426Z,4.60
2023-01-06T07:04:11.073Z,5.40
2023-01-06T07:06:59.578Z,5.93
2023-01-06T07:09:48.929Z,4.70
2023-01-06T07:12:37.490Z,4.17
2023-01-06T07:15:25.954Z,4.20
2023-01-06T07:18:14.495Z,4.53
2023-01-06T07:21:05.915Z,5.40
2023-01-06T07:23:54.493Z,5.00
2023-01-06T07:26:42.999Z,4.60
2023-01-06T07:29:31.448Z,4.20
2023-01-06T07:32:19.950Z,4.17
2023-01-06T07:35:08.973Z,4.00
2023-01-06T07:38:03.444Z,5.20
2023-01-06T07:40:52.009Z,3.87
2023-01-06T07:43:40.795Z,7.47
2023-01-06T07:46:31.556Z,3.90
2023-01-06T07:49:20.047Z,6.97
2023-01-06T07:52:08.530Z,4.07
2023-01-06T07:54:59.581Z,6.97
2023-01-06T07:57:48.145Z,5.17
2023-01-06T08:00:37.055Z,5.23
2023-01-06T08:03:25.609Z,4.90
2023-01-06T08:06:14.808Z,6.17
2023-01-06T08:09:03.285Z,5.13
2023-01-06T08:11:53.073Z,10.47
2023-01-06T08:14:41.562Z,4.20
2023-01-06T08:17:30.701Z,4.20
2023-01-06T08:20:19.216Z,4.33
2023-01-06T08:23:07.639Z,4.33
2023-01-06T08:26:02.780Z,4.60
2023-01-06T08:28:53.506Z,3.70
2023-01-06T08:31:42.300Z,4.97
2023-01-06T08:34:30.816Z,4.13
2023-01-06T08:37:19.312Z,4.30
2023-01-06T08:40:08.643Z,4.07
2023-01-06T08:42:57.205Z,5.20
2023-01-06T08:45:47.076Z,8.40
2023-01-06T08:48:36.296Z,6.47
2023-01-06T08:51:25.945Z,3.73
2023-01-06T08:54:15.150Z,2.90
2023-01-06T08:57:04.544Z,2.67
2023-01-06T08:59:52.992Z,3.50
2023-01-06T09:02:42.919Z,2.90
2023-01-06T09:05:31.422Z,1.80
2023-01-06T09:08:19.908Z,1.60
2023-01-06T09:11:09.458Z,4.60
2023-01-06T09:13:59.336Z,1.60
2023-01-06T09:16:48.784Z,1.47
2023-01-06T09:19:20.436Z,1.60
2023-01-06T09:21:48.689Z,1.50
2023-01-06T09:24:17.142Z,1.87
2023-01-06T09:26:45.439Z,1.40
2023-01-06T09:29:13.599Z,1.40
2023-01-06T09:31:41.737Z,1.50
2023-01-06T09:34:10.054Z,1.70
2023-01-06T09:36:39.731Z,2.53
2023-01-06T09:39:08.174Z,2.13
2023-01-06T09:42:13.302Z,1.57
2023-01-06T09:44:47.355Z,1.47
2023-01-06T09:47:18.778Z,2.00
2023-01-06T09:49:51.066Z,1.37
2023-01-06T09:52:25.636Z,1.60
2023-01-06T09:54:56.275Z,1.73
2023-01-06T09:57:29.806Z,1.33
2023-01-06T10:00:00.092Z,1.30
2023-01-06T10:02:31.372Z,2.90
2023-01-06T10:04:59.743Z,1.40
2023-01-06T10:07:35.038Z,1.30
2023-01-06T10:10:13.589Z,1.30
2023-01-06T10:12:49.616Z,2.00
2023-01-06T10:15:23.006Z,2.03
2023-01-06T10:18:01.997Z,10.17
2023-01-06T10:20:59.742Z,1.30
2023-01-06T10:23:52.765Z,1.43
2023-01-06T10:26:28.619Z,2.50
2023-01-06T10:29:02.766Z,1.73
2023-01-06T10:31:35.408Z,2.33
2023-01-06T10:34:04.413Z,2.07
2023-01-06T10:36:33.698Z,1.70
2023-01-06T10:39:07.127Z,1.50
2023-01-06T10:41:41.867Z,1.30
2023-01-06T10:44:11.651Z,2.60
2023-01-06T10:46:40.354Z,1.33
2023-01-06T10:49:15.854Z,2.17
2023-01-06T10:51:45.796Z,1.37
2023-01-06T10:54:18.102Z,1.30
2023-01-06T10:56:49.373Z,1.57
2023-01-06T10:59:17.632Z,2.40
2023-01-06T11:01:50.489Z,1.30
2023-01-06T11:04:19.842Z,1.47
2023-01-06T11:06:51.765Z,1.20
2023-01-06T11:09:28.072Z,1.30
2023-01-06T11:11:58.781Z,5.40
2023-01-06T11:14:29.552Z,1.33
2023-01-06T11:16:59.593Z,1.97
2023-01-06T11:19:35.627Z,1.97
2023-01-06T11:22:04.427Z,1.73
2023-01-06T11:24:34.093Z,1.40
2023-01-06T11:27:14.925Z,1.77
2023-01-06T11:29:43.125Z,1.40
2023-01-06T11:32:16.947Z,1.10
2023-01-06T11:34:53.020Z,1.27
2023-01-06T11:37:31.536Z,1.73
2023-01-06T11:40:10.359Z,1.40
2023-01-06T11:45:08.648Z,1.30
2023-01-06T11:47:36.843Z,3.50
2023-01-06T11:50:05.808Z,2.13
2023-01-06T11:52:35.152Z,1.37
2023-01-06T11:55:21.263Z,1.47
2023-01-06T11:57:53.821Z,1.80
2023-01-06T12:00:42.592Z,1.40
2023-01-06T12:03:18.723Z,2.03
2023-01-06T12:05:50.322Z,1.30
2023-01-06T12:08:21.542Z,1.50
2023-01-06T12:10:55.702Z,1.60
2023-01-06T12:13:24.595Z,1.33
2023-01-06T12:15:59.912Z,1.23
2023-01-06T12:18:30.459Z,1.20
2023-01-06T12:21:00.159Z,1.20
2023-01-06T12:23:31.122Z,1.47
2023-01-06T12:26:03.682Z,2.17
2023-01-06T12:28:34.612Z,2.00
2023-01-06T12:31:08.981Z,1.90
2023-01-06T12:33:40.880Z,1.30
2023-01-06T12:36:14.465Z,1.43
2023-01-06T12:38:50.621Z,2.30
2023-01-06T12:41:24.485Z,2.00
2023-01-06T12:43:56.113Z,1.60
2023-01-06T12:46:29.465Z,2.30
2023-01-06T12:48:59.469Z,1.40
2023-01-06T12:51:31.776Z,1.90
2023-01-06T12:54:03.300Z,2.00
2023-01-06T12:56:49.820Z,1.30
2023-01-06T12:59:24.170Z,1.40
2023-01-06T13:01:55.777Z,1.60
2023-01-06T13:04:42.415Z,3.27
2023-01-06T13:07:21.425Z,1.40
2023-01-06T13:09:58.623Z,1.40
2023-01-06T13:12:45.938Z,1.50
2023-01-06T13:15:21.048Z,1.53
2023-01-06T13:17:54.501Z,1.50
2023-01-06T13:20:25.684Z,1.60
2023-01-06T13:23:03.821Z,1.53
2023-01-06T13:25:45.505Z,4.30
2023-01-06T13:28:21.663Z,1.30
2023-01-06T13:31:07.739Z,1.63
2023-01-06T13:34:06.306Z,1.47
2023-01-06T13:37:05.214Z,1.77
2023-01-06T13:39:34.553Z,1.40
2023-01-06T13:42:05.686Z,1.77
2023-01-06T13:44:38.980Z,1.50
2023-01-06T13:47:10.821Z,1.40
2023-01-06T13:49:39.603Z,3.00
2023-01-06T13:52:09.269Z,2.60
2023-01-06T13:55:00.175Z,2.40
2023-01-06T13:57:32.939Z,4.50
2023-01-06T14:00:26.994Z,1.77
2023-01-06T14:03:25.799Z,1.27
2023-01-06T14:05:56.410Z,1.50
2023-01-06T14:08:26.332Z,1.50
2023-01-06T14:11:23.644Z,2.43
2023-01-06T14:13:53.940Z,1.50
2023-01-06T14:16:23.936Z,1.40
2023-01-06T14:18:53.675Z,1.67
2023-01-06T14:21:28.863Z,1.33
2023-01-06T14:24:01.920Z,2.93
2023-01-06T14:26:54.071Z,1.80
2023-01-06T14:30:03.597Z,3.47
2023-01-06T14:33:11.622Z,1.60
2023-01-06T14:35:44.239Z,1.67
2023-01-06T14:38:30.105Z,1.80
2023-01-06T14:41:00.977Z,1.83
2023-01-06T14:43:33.439Z,1.50
2023-01-06T14:46:07.785Z,2.30
2023-01-06T14:48:41.642Z,1.57
2023-01-06T14:51:15.844Z,1.50
2023-01-06T14:53:48.801Z,2.10
2023-01-06T14:56:19.444Z,1.60
2023-01-06T14:58:47.996Z,2.07
2023-01-06T15:01:23.697Z,1.60
2023-01-06T15:03:56.577Z,3.10
2023-01-06T15:06:27.806Z,2.10
2023-01-06T15:08:57.723Z,2.00
2023-01-06T15:11:30.229Z,2.17
2023-01-06T15:13:58.861Z,2.10
2023-01-06T15:16:34.041Z,1.80
2023-01-06T15:19:02.672Z,2.67
2023-01-06T15:21:32.639Z,1.50
2023-01-06T15:24:00.854Z,1.70
2023-01-06T15:26:30.131Z,2.07
2023-01-06T15:29:02.997Z,1.83
2023-01-06T15:31:33.486Z,1.83
2023-01-06T15:34:03.624Z,1.77
2023-01-06T15:36:34.135Z,2.37
2023-01-06T15:39:03.974Z,1.90
2023-01-06T15:41:36.844Z,1.97
2023-01-06T15:44:22.456Z,2.07
2023-01-06T15:46:53.029Z,1.80
2023-01-06T15:49:27.626Z,2.17
2023-01-06T15:51:59.458Z,1.90
2023-01-06T15:54:29.386Z,2.10
2023-01-06T15:57:05.082Z,2.93
2023-01-06T15:59:40.348Z,1.80
2023-01-06T16:02:17.807Z,1.87
2023-01-06T16:04:48.984Z,1.73
2023-01-06T16:07:35.083Z,2.60
2023-01-06T16:10:03.792Z,3.10
2023-01-06T16:12:32.238Z,2.23
2023-01-06T16:15:36.047Z,1.50
2023-01-06T16:18:04.449Z,1.97
2023-01-06T16:20:32.927Z,1.67
2023-01-06T16:23:03.200Z,1.50
2023-01-06T16:25:33.270Z,1.53
2023-01-06T16:28:03.517Z,1.77
2023-01-06T16:30:33.686Z,1.50
2023-01-06T16:33:02.276Z,1.70
2023-01-06T16:35:32.414Z,2.20
2023-01-06T16:38:02.158Z,2.07
2023-01-06T16:40:30.570Z,3.00
2023-01-06T16:43:00.311Z,2.27
2023-01-06T16:45:34.284Z,2.33
2023-01-06T16:48:02.739Z,2.40
2023-01-06T16:50:34.891Z,2.40
2023-01-06T16:53:12.613Z,2.93
2023-01-06T16:55:42.152Z,2.10
2023-01-06T16:58:15.693Z,5.07
2023-01-06T17:00:48.097Z,3.60
2023-01-06T17:03:18.764Z,4.10
2023-01-06T17:05:47.148Z,7.53
2023-01-06T17:08:18.281Z,6.53
2023-01-06T17:10:46.617Z,5.30
2023-01-06T17:13:33.951Z,4.93
2023-01-06T17:16:05.405Z,8.23
2023-01-06T17:18:35.040Z,8.53
2023-01-06T17:21:10.205Z,11.07
2023-01-06T17:23:44.872Z,7.27
2023-01-06T17:26:15.133Z,14.10
2023-01-06T17:28:43.916Z,16.67
2023-01-06T17:31:15.908Z,10.33
2023-01-06T17:33:45.472Z,7.47
2023-01-06T17:36:22.052Z,5.27
2023-01-06T17:38:52.243Z,4.37
2023-01-06T17:41:20.694Z,4.63
2023-01-06T17:43:49.101Z,3.10
2023-01-06T17:46:24.537Z,2.80
2023-01-06T17:49:04.183Z,2.90
2023-01-06T17:51:32.467Z,2.60
2023-01-06T17:54:20.141Z,3.40
2023-01-06T17:56:48.518Z,2.50
2023-01-06T17:59:18.640Z,3.20
2023-01-06T18:01:47.009Z,2.93
2023-01-06T18:04:16.184Z,3.93
2023-01-06T18:06:50.555Z,4.33
2023-01-06T18:09:23.322Z,2.97
2023-01-06T18:12:12.387Z,4.30
2023-01-06T18:15:03.075Z,4.73
2023-01-06T18:17:51.531Z,5.37
2023-01-06T18:20:40.208Z,6.30
2023-01-06T18:23:29.391Z,7.10
2023-01-06T18:26:36.880Z,4.40
2023-01-06T18:29:28.743Z,4.40
2023-01-06T18:32:26.270Z,3.90
2023-01-06T18:35:17.592Z,4.47
2023-01-06T18:38:07.101Z,5.63
2023-01-06T18:40:57.016Z,4.57
2023-01-06T18:43:47.367Z,4.93
2023-01-06T18:46:36.082Z,3.80
2023-01-06T18:49:25.480Z,4.30
2023-01-06T18:52:39.170Z,6.20
2023-01-06T18:55:36.393Z,7.13
2023-01-06T18:58:38.916Z,6.30
2023-01-06T19:01:32.013Z,7.37
2023-01-06T19:04:26.006Z,10.93
2023-01-06T19:07:19.675Z,9.20
2023-01-06T19:10:24.298Z,8.60
2023-01-06T19:13:20.191Z,20.80
2023-01-06T19:16:25.547Z,13.50
2023-01-06T19:19:24.611Z,11.70
2023-01-06T19:22:20.426Z,15.40
2023-01-06T19:25:17.122Z,13.70
2023-01-06T19:28:11.331Z,10.53
2023-01-06T19:31:00.291Z,13.10
2023-01-06T19:33:53.581Z,12.30
2023-01-06T19:36:46.860Z,11.10
2023-01-06T19:39:38.367Z,12.80
2023-01-06T19:42:29.908Z,12.50
2023-01-06T19:45:29.456Z,14.53
2023-01-06T19:48:22.810Z,8.00
2023-01-06T19:51:24.129Z,10.53
2023-01-06T19:54:23.172Z,9.03
2023-01-06T19:57:23.673Z,7.93
2023-01-06T20:00:23.812Z,8.97
2023-01-06T20:03:28.028Z,9.00
2023-01-06T20:06:17.402Z,10.00
2023-01-06T20:09:05.915Z,7.93
2023-01-06T20:11:57.170Z,8.90
2023-01-06T20:14:45.722Z,7.27
2023-01-06T20:17:34.306Z,6.97
2023-01-06T20:20:22.886Z,7.10
2023-01-06T20:23:12.177Z,7.57
2023-01-06T20:26:01.858Z,7.43
2023-01-06T20:28:51.877Z,7.70
2023-01-06T20:31:40.523Z,8.40
2023-01-06T20:34:29.120Z,9.53
2023-01-06T20:37:17.627Z,5.90
2023-01-06T20:40:07.224Z,6.53
2023-01-06T20:42:55.758Z,6.83
2023-01-06T20:45:47.364Z,4.80
2023-01-06T20:48:35.992Z,6.70
2023-01-06T20:51:24.578Z,7.87
2023-01-06T20:54:13.080Z,10.67
2023-01-06T20:57:01.628Z,11.43
2023-01-06T20:59:50.264Z,10.27
2023-01-06T21:02:40.501Z,26.33
2023-01-06T21:05:29.047Z,33.40
2023-01-06T21:08:18.053Z,27.70
2023-01-06T21:11:06.863Z,24.70
2023-01-06T21:13:55.367Z,19.63
2023-01-06T21:16:43.876Z,14.87
2023-01-06T21:19:33.665Z,15.67
2023-01-06T21:22:22.288Z,13.27
2023-01-06T21:25:11.188Z,13.23
2023-01-06T21:27:59.736Z,9.20
2023-01-06T21:30:49.162Z,7.80
2023-01-06T21:33:37.645Z,9.30
2023-01-06T21:36:27.995Z,7.23
2023-01-06T21:39:17.869Z,7.00
2023-01-06T21:42:24.246Z,6.50
2023-01-06T21:45:12.785Z,7.67
2023-01-06T21:48:01.240Z,33.03
2023-01-06T21:50:50.141Z,10.83
2023-01-06T21:53:40.491Z,10.33
2023-01-06T21:56:29.024Z,10.53
2023-01-06T21:59:17.769Z,9.57
2023-01-06T22:02:06.632Z,18.60
2023-01-06T22:04:55.874Z,25.20
2023-01-06T22:07:48.176Z,23.77
2023-01-06T22:10:41.219Z,12.73
2023-01-06T22:13:30.233Z,14.53
2023-01-06T22:16:19.315Z,10.50
2023-01-06T22:19:07.975Z,11.27
2023-01-06T22:21:59.496Z,7.73
2023-01-06T22:24:48.701Z,9.13
2023-01-06T22:27:38.709Z,7.90
2023-01-06T22:30:30.478Z,7.70
2023-01-06T22:33:18.969Z,7.67
2023-01-06T22:36:08.497Z,5.30
2023-01-06T22:38:57.006Z,6.90
2023-01-06T22:41:47.181Z,10.00
2023-01-06T22:44:37.062Z,5.17
2023-01-06T22:47:25.508Z,6.80
2023-01-06T22:50:14.138Z,7.60
2023-01-06T22:53:02.563Z,6.27
2023-01-06T22:55:57.448Z,5.80
2023-01-06T22:58:46.118Z,5.20
2023-01-06T23:01:36.401Z,4.93
2023-01-06T23:04:25.165Z,4.17
2023-01-06T23:07:14.059Z,3.90
2023-01-06T23:10:02.661Z,4.23
2023-01-06T23:12:52.433Z,3.97
2023-01-06T23:15:40.989Z,4.80
2023-01-06T23:18:31.430Z,4.00
2023-01-06T23:21:22.078Z,3.87
2023-01-06T23:24:11.279Z,3.60
2023-01-06T23:27:00.751Z,4.03
2023-01-06T23:29:49.251Z,3.60
2023-01-06T23:32:37.740Z,5.40
2023-01-06T23:35:27.542Z,19.67
2023-01-06T23:38:16.172Z,4.47
2023-01-06T23:41:06.661Z,6.90
2023-01-06T23:43:56.507Z,4.80
2023-01-06T23:46:46.264Z,3.90
2023-01-06T23:49:34.889Z,4.63
2023-01-06T23:52:24.899Z,3.33
2023-01-06T23:55:13.367Z,3.77
2023-01-06T23:58:01.775Z,3.87
